Flight Track Log - Related Links

Times and Time Zones

All times are in EST time to prevent confusion due to time zone crossing. See the TYR843 flight status page for this flight to view local times or setup timezone preferences in your user account.

Time Position Orientation Groundspeed Altitude Reporting Facility
EST Latitude Longitude Course Direction KTS MPH feet Rate Location/Type
Sun 06:19:00 PM 46.2491 17.5259 160° South  Level Estimated
Sun 06:20:00 PM 46.1509 17.5744 161° South  Level Estimated
Sun 06:21:00 PM 46.0527 17.6228 161° South  Level Estimated
Sun 06:22:00 PM 45.9545 17.6710 161° South  Level Estimated
Sun 06:23:00 PM 45.8563 17.7190 161° South  Level Estimated
Sun 06:24:00 PM 45.7581 17.7668 161° South  Level Estimated
Sun 06:25:00 PM 45.6598 17.8144 161° South  Level Estimated
Sun 06:26:00 PM 45.5615 17.8619 161° South  Level Estimated
Sun 06:27:00 PM 45.4632 17.9093 161° South  Level Estimated
Sun 06:28:00 PM 45.3649 17.9564 161° South  Level Estimated
Sun 06:29:00 PM 45.2665 18.0034 161° South  Level Estimated
Sun 06:30:00 PM 45.1681 18.0503 161° South  Level Estimated
Sun 06:31:00 PM 45.0698 18.0970 161° South  Level Estimated
Sun 06:32:00 PM 44.9713 18.1435 162° South  Level Estimated
Sun 06:33:00 PM 44.8729 18.1898 162° South  Level Estimated
Sun 06:34:00 PM 44.7745 18.2360 162° South  Level Estimated
Sun 06:35:00 PM 44.6760 18.2821 162° South  Level Estimated
Sun 06:36:00 PM 44.5775 18.3279 162° South  Level Estimated
Sun 06:37:00 PM 44.4790 18.3737 162° South  Level Estimated
Sun 06:38:00 PM 44.3805 18.4193 162° South  Level Estimated
Sun 06:39:00 PM 44.2820 18.4647 162° South  Level Estimated
Sun 06:40:00 PM 44.1834 18.5099 162° South  Level Estimated
Sun 06:41:00 PM 44.0848 18.5551 162° South  Level Estimated
Sun 06:42:00 PM 43.9863 18.6000 162° South  Level Estimated
Sun 06:43:00 PM 43.8876 18.6448 162° South  Level Estimated
Sun 06:44:00 PM 43.7890 18.6895 162° South  Level Estimated
Sun 06:45:00 PM 43.6904 18.7340 162° South  Level Estimated
Sun 06:46:00 PM 43.5917 18.7784 162° South  Level Estimated
Sun 06:47:00 PM 43.4930 18.8227 162° South  Level Estimated
Sun 06:48:00 PM 43.3943 18.8667 162° South  Level Estimated
Sun 06:49:00 PM 43.2956 18.9107 162° South  Level Estimated
Sun 06:50:00 PM 43.1969 18.9545 162° South  Level Estimated
Sun 06:51:00 PM 43.0982 18.9981 162° South  Level Estimated
Sun 06:52:00 PM 42.9994 19.0417 162° South  Level Estimated
Sun 06:53:00 PM 42.9006 19.0850 162° South  Level Estimated
Sun 06:54:00 PM 42.8018 19.1283 162° South  Level Estimated
Sun 06:55:00 PM 42.7030 19.1714 162° South  Level Estimated
Sun 06:56:00 PM 42.6042 19.2143 162° South  Level Estimated
Sun 06:57:00 PM 42.5053 19.2572 162° South  Level Estimated
Sun 06:58:00 PM 42.4065 19.2999 162° South  Level Estimated
Sun 06:59:00 PM 42.3076 19.3424 162° South  Level Estimated
Sun 07:00:00 PM 42.2087 19.3849 162° South  Level Estimated
Sun 07:01:00 PM 42.1098 19.4272 162° South  Level Estimated
Sun 07:02:00 PM 42.0109 19.4693 162° South  Level Estimated
Sun 07:03:00 PM 41.9120 19.5114 162° South  Level Estimated
Sun 07:04:00 PM 41.8130 19.5533 162° South  Level Estimated
Sun 07:05:00 PM 41.7141 19.5950 163° South  Level Estimated
Sun 07:06:00 PM 41.6151 19.6367 163° South  Level Estimated
Sun 07:07:00 PM 41.5161 19.6782 163° South  Level Estimated
Sun 07:08:00 PM 41.4171 19.7196 163° South  Level Estimated
Sun 07:09:00 PM 41.4147 19.7206 163° South  Level Estimated
Sun 07:10:00 PM 41.4147 19.7206 21° North  Level Estimated
Sun 07:11:00 PM 41.4147 19.7206 21° North  Level Estimated
Sun 07:12:00 PM 41.4147 19.7206 21° North  Level Estimated
Sun 07:13:00 PM 41.4147 19.7206 21° North  Level Estimated
Sun 07:14:00 PM 41.4147 19.7206 21° North  Level Estimated
Sun 07:15:00 PM 41.4147 19.7206 21° North  Level Estimated
Sun 07:16:00 PM 41.4147 19.7206 21° North  Level Estimated
Sun 07:17:00 PM 41.4147 19.7206 21° North  Level Estimated
Sun 07:18:00 PM 41.4147 19.7206 21° North  Level Estimated
Sun 07:19:00 PM 41.4147 19.7206 21° North  Level Estimated

Login

Don't have an account? Register now (free) for customized features, flight alerts, and more!